Buffalo, WY

6:53 AM MDT on October 31, 2014 (GMT -0600)
RAWS SCHOOL HOUSE WY US | Change Station
CLOSE
Current Station
Personal Weather Station
Location: Buffalo, WY
Elevation: 8604 ft
Nearby Weather Stations

Elev 8604 ft 44.31 °N, 106.98 °W | Updated 2 hours ago

Clear
Clear
43 °F
Feels Like 41 °F
N
4
Wind Variable Wind from North
Gusts 6.0 mph

Today
High -- | Low -- °F
--% Chance of Precip.
Yesterday
High -- | Low -- °F
Precip. -- in
7:42 AM 5:57 PM
First Quarter, 55% visible
Pressure 30.10 in
Visibility 10.0 miles
Clouds Clear
Windchill 41 °F
Dew Point 23 °F
Humidity 45%
Rainfall 0.00 in
Snow Depth Not available.
UV 0 out of 12
Pollen 1.70 out of 12
Air Quality Not available.
Flu Activity Not available.
METAR KBYG 311153Z AUTO 14016KT 10SM CLR 03/M04 A3012 RMK AO2 PK WND 15028/1129 SLP193 T00281039 10072 20028 56022

More Conditions Fewer Conditions

Pressure 30.10 in
Visibility 10.0 miles
Clouds Clear
Windchill 41 °F
Dew Point 23 °F
Humidity 45%
Rainfall 0.00 in
Snow Depth Not available.
UV 0 out of 12
Pollen 1.70 out of 12
Air Quality Not available.
Flu Activity Not available.
METAR KBYG 311153Z AUTO 14016KT 10SM CLR 03/M04 A3012 RMK AO2 PK WND 15028/1129 SLP193 T00281039 10072 20028 56022

More Conditions Fewer Conditions

10-Day Weather Forecast

Almanac

Astronomy

Oct. 31, 2014 Rise Set
Actual Time
Civil Twilight
Nautical Twilight
Astronomical Twilight
Moon
Length of Visible Light
Length of Day
Tomorrow will be .
, % of the Moon is Illuminated

Today's Extremes

State Highs State Lows

Community

WunderPhotos

Upload Photos

1,766,593 photos uploaded!

WunderBlogs® & News

Nearby

Air Quality

  Air Quality AQ Index Pollutant
Not available.

Snow Depth

Station Depth Elevation

Earthquake Activity

City Distance Mag. Time & Date
Minimum magnitude displayed is 2.5.

Coastal Water Temperatures

Place Temperature

Nearby Weather Stations